F/V Starlight — WDB8157 — position and weather

sailwx.info

Track history (hours):
 
Tides and Currents Weather Stations Pressure Air Temp Water Temp Dewpoint Dewpoint Depression Visibility Wind Speed Wind Dir Waves Ship Positions

F/V Starlight

Owner: STARLIGHT INC., VINALHAVEN, ME. More information available from US FCC via Universal Licensing System and Coast Guard Vessel Documentation Center.

Last reported at 2018-May-25 15:49 UTC. Time now 2018-May-26 10:16 UTC.
Position N 44°07' W 069°06'.

Length 30 m.

Type: Fishing. MMSI: 366953940.

Date/timePositionNaut miles runAvg speedWind from/ knotsBaromVisibWave heightAir tempDewpointWater temp
2018-May-25 15:49N 44°07' W 069°06'0 0.1
2018-May-25 15:27N 44°07' W 069°06'0 0.0
2018-May-24 06:02N 44°07' W 069°06'0 4.3
2018-May-24 06:00N 44°06' W 069°06'4 8.1
2018-May-24 05:29N 44°04' W 069°01'5 9.6
2018-May-24 05:00N 43°60' W 068°60'5 9.7
2018-May-24 04:30N 43°55' W 068°58'5 9.3
2018-May-24 03:59N 43°50' W 068°58'  
2018-May-20 19:12N 43°56' W 068°59'3 9.0
2018-May-20 18:52N 43°58' W 068°60'3 9.1
2018-May-20 18:30N 44°02' W 069°01'4 8.7
2018-May-20 17:59N 44°06' W 069°03'  
2018-May-15 17:31N 44°07' W 069°06'  
Track history (hours):
 
Tides and Currents Weather Stations Pressure Air Temp Water Temp Dewpoint Dewpoint Depression Visibility Wind Speed Wind Dir Waves Ship Positions

F/V Starlight

Owner: STARLIGHT INC., VINALHAVEN, ME. More information available from US FCC via Universal Licensing System and Coast Guard Vessel Documentation Center.

Last reported at 2018-May-25 15:49 UTC. Time now 2018-May-26 10:16 UTC.
Position N 44°07' W 069°06'.

Length 30 m.

Type: Fishing. MMSI: 366953940.

Date/timePositionNaut miles runAvg speedWind from/ knotsBaromVisibWave heightAir tempDewpointWater temp
2018-May-25 15:49N 44°07' W 069°06'0 0.1
2018-May-25 15:27N 44°07' W 069°06'0 0.0
2018-May-24 06:02N 44°07' W 069°06'0 4.3
2018-May-24 06:00N 44°06' W 069°06'4 8.1
2018-May-24 05:29N 44°04' W 069°01'5 9.6
2018-May-24 05:00N 43°60' W 068°60'5 9.7
2018-May-24 04:30N 43°55' W 068°58'5 9.3
2018-May-24 03:59N 43°50' W 068°58'  
2018-May-20 19:12N 43°56' W 068°59'3 9.0
2018-May-20 18:52N 43°58' W 068°60'3 9.1
2018-May-20 18:30N 44°02' W 069°01'4 8.7
2018-May-20 17:59N 44°06' W 069°03'  
2018-May-15 17:31N 44°07' W 069°06'  

Dump ship's entire track history